createdAt,value
2023-01-19T00:00:04.414Z,995.9
2023-01-19T00:01:04.306Z,995.8
2023-01-19T00:02:04.358Z,995.9
2023-01-19T00:03:04.442Z,995.9
2023-01-19T00:04:04.339Z,995.9
2023-01-19T00:05:04.322Z,995.9
2023-01-19T00:06:04.397Z,995.9
2023-01-19T00:07:04.301Z,995.9
2023-01-19T00:08:04.341Z,995.9
2023-01-19T00:09:04.330Z,995.9
2023-01-19T00:10:04.354Z,995.9
2023-01-19T00:11:04.324Z,995.9
2023-01-19T00:12:04.399Z,995.9
2023-01-19T00:13:04.366Z,996.0
2023-01-19T00:14:04.359Z,996.0
2023-01-19T00:15:04.342Z,996.0
2023-01-19T00:16:04.375Z,996.0
2023-01-19T00:17:04.318Z,996.0
2023-01-19T00:18:04.382Z,996.0
2023-01-19T00:19:04.313Z,995.9
2023-01-19T00:20:04.341Z,996.0
2023-01-19T00:21:04.346Z,996.0
2023-01-19T00:22:04.343Z,995.9
2023-01-19T00:23:04.326Z,995.9
2023-01-19T00:24:04.358Z,996.0
2023-01-19T00:25:04.327Z,996.0
2023-01-19T00:26:04.361Z,996.0
2023-01-19T00:27:04.320Z,996.0
2023-01-19T00:28:04.336Z,996.0
2023-01-19T00:29:04.311Z,996.0
2023-01-19T00:30:04.397Z,996.0
2023-01-19T00:31:04.377Z,996.0
2023-01-19T00:32:04.361Z,996.0
2023-01-19T00:33:04.356Z,996.1
2023-01-19T00:34:04.340Z,996.0
2023-01-19T00:35:04.326Z,996.1
2023-01-19T00:36:04.413Z,996.1
2023-01-19T00:37:04.334Z,996.1
2023-01-19T00:38:04.346Z,996.1
2023-01-19T00:39:04.319Z,996.1
2023-01-19T00:40:04.362Z,996.1
2023-01-19T00:41:12.715Z,996.1
2023-01-19T00:42:04.396Z,996.1
2023-01-19T00:43:04.344Z,996.1
2023-01-19T00:44:04.378Z,996.1
2023-01-19T00:45:04.326Z,996.1
2023-01-19T00:46:04.402Z,996.1
2023-01-19T00:47:04.346Z,996.2
2023-01-19T00:48:04.380Z,996.2
2023-01-19T00:49:04.349Z,996.2
2023-01-19T00:50:04.396Z,996.2
2023-01-19T00:51:04.334Z,996.2
2023-01-19T00:52:04.363Z,996.3
2023-01-19T00:53:04.330Z,996.3
2023-01-19T00:54:04.372Z,996.3
2023-01-19T00:55:04.335Z,996.3
2023-01-19T00:56:04.356Z,996.3
2023-01-19T00:57:04.333Z,996.3
2023-01-19T00:58:04.355Z,996.3
2023-01-19T00:59:04.332Z,996.3
2023-01-19T01:00:04.388Z,996.3
2023-01-19T01:01:04.390Z,996.3
2023-01-19T01:02:04.602Z,996.3
2023-01-19T01:03:04.904Z,996.3
2023-01-19T01:04:04.366Z,996.3
2023-01-19T01:05:04.472Z,996.4
2023-01-19T01:06:04.405Z,996.3
2023-01-19T01:07:04.340Z,996.4
2023-01-19T01:08:04.362Z,996.4
2023-01-19T01:09:04.336Z,996.4
2023-01-19T01:10:04.361Z,996.4
2023-01-19T01:11:04.327Z,996.4
2023-01-19T01:12:04.389Z,996.4
2023-01-19T01:13:23.693Z,996.4
2023-01-19T01:14:04.350Z,996.4
2023-01-19T01:15:04.334Z,996.4
2023-01-19T01:16:04.502Z,996.4
2023-01-19T01:17:04.331Z,996.4
2023-01-19T01:18:04.385Z,996.5
2023-01-19T01:19:04.361Z,996.5
2023-01-19T01:20:04.351Z,996.4
2023-01-19T01:21:04.329Z,996.4
2023-01-19T01:22:04.360Z,996.4
2023-01-19T01:23:04.625Z,996.4
2023-01-19T01:24:04.424Z,996.4
2023-01-19T01:25:04.341Z,996.5
2023-01-19T01:26:04.361Z,996.5
2023-01-19T01:27:04.330Z,996.5
2023-01-19T01:28:04.357Z,996.5
2023-01-19T01:29:04.359Z,996.5
2023-01-19T01:30:04.407Z,996.5
2023-01-19T01:31:04.327Z,996.5
2023-01-19T01:32:04.371Z,996.5
2023-01-19T01:33:04.350Z,996.5
2023-01-19T01:34:04.387Z,996.5
2023-01-19T01:35:04.331Z,996.5
2023-01-19T01:36:04.530Z,996.5
2023-01-19T01:37:04.361Z,996.5
2023-01-19T01:38:04.367Z,996.5
2023-01-19T01:39:04.346Z,996.5
2023-01-19T01:41:10.233Z,996.5
2023-01-19T01:41:14.215Z,996.5
2023-01-19T01:42:04.377Z,996.5
2023-01-19T01:43:04.335Z,996.5
2023-01-19T01:44:04.390Z,996.5
2023-01-19T01:45:04.341Z,996.5
2023-01-19T01:46:04.452Z,996.5
2023-01-19T01:47:04.394Z,996.5
2023-01-19T01:48:04.366Z,996.5
2023-01-19T01:49:04.347Z,996.5
2023-01-19T01:50:04.370Z,996.5
2023-01-19T01:51:04.337Z,996.5
2023-01-19T01:52:04.375Z,996.5
2023-01-19T01:53:06.379Z,996.5
2023-01-19T01:54:04.411Z,996.5
2023-01-19T01:55:04.342Z,996.5
2023-01-19T01:56:04.373Z,996.5
2023-01-19T01:57:04.341Z,996.5
2023-01-19T01:58:04.373Z,996.5
2023-01-19T01:59:04.379Z,996.5
2023-01-19T02:00:04.401Z,996.5
2023-01-19T02:01:04.423Z,996.6
2023-01-19T02:02:04.431Z,996.6
2023-01-19T02:03:04.590Z,996.6
2023-01-19T02:04:04.370Z,996.7
2023-01-19T02:05:04.385Z,996.7
2023-01-19T02:06:04.388Z,996.6
2023-01-19T02:07:04.354Z,996.6
2023-01-19T02:08:04.391Z,996.6
2023-01-19T02:09:04.366Z,996.5
2023-01-19T02:10:04.362Z,996.6
2023-01-19T02:11:04.382Z,996.5
2023-01-19T02:12:04.370Z,996.5
2023-01-19T02:13:04.340Z,996.5
2023-01-19T02:14:04.383Z,996.5
2023-01-19T02:15:04.356Z,996.5
2023-01-19T02:16:04.465Z,996.5
2023-01-19T02:17:04.446Z,996.5
2023-01-19T02:18:04.358Z,996.5
2023-01-19T02:19:04.380Z,996.5
2023-01-19T02:20:04.370Z,996.5
2023-01-19T02:21:04.373Z,996.5
2023-01-19T02:22:04.377Z,996.5
2023-01-19T02:23:04.411Z,996.5
2023-01-19T02:24:04.358Z,996.5
2023-01-19T02:25:04.373Z,996.5
2023-01-19T02:26:04.356Z,996.5
2023-01-19T02:27:04.379Z,996.5
2023-01-19T02:28:04.466Z,996.5
2023-01-19T02:29:04.441Z,996.5
2023-01-19T02:30:04.351Z,996.5
2023-01-19T02:31:04.399Z,996.5
2023-01-19T02:32:04.357Z,996.5
2023-01-19T02:33:04.367Z,996.5
2023-01-19T02:34:04.379Z,996.5
2023-01-19T02:35:04.408Z,996.5
2023-01-19T02:36:04.389Z,996.5
2023-01-19T02:37:04.390Z,996.5
2023-01-19T02:38:04.458Z,996.5
2023-01-19T02:39:04.391Z,996.5
2023-01-19T02:40:04.381Z,996.5
2023-01-19T02:41:04.465Z,996.5
2023-01-19T02:42:04.370Z,996.5
2023-01-19T02:44:28.742Z,996.5
2023-01-19T02:44:32.705Z,996.5
2023-01-19T02:45:04.361Z,996.5
2023-01-19T02:46:04.363Z,996.5
2023-01-19T02:47:04.605Z,996.6
2023-01-19T02:48:04.363Z,996.5
2023-01-19T02:49:04.397Z,996.5
2023-01-19T02:50:04.368Z,996.5
2023-01-19T02:51:04.428Z,996.6
2023-01-19T02:52:04.380Z,996.5
2023-01-19T02:53:04.691Z,996.6
2023-01-19T02:54:04.374Z,996.6
2023-01-19T02:55:04.401Z,996.5
2023-01-19T02:56:04.362Z,996.5
2023-01-19T02:57:04.388Z,996.5
2023-01-19T02:58:04.367Z,996.5
2023-01-19T02:59:04.418Z,996.5
2023-01-19T03:00:04.367Z,996.5
2023-01-19T03:01:04.453Z,996.5
2023-01-19T03:02:04.405Z,996.5
2023-01-19T03:03:04.800Z,996.5
2023-01-19T03:04:04.369Z,996.5
2023-01-19T03:05:05.116Z,996.5
2023-01-19T03:06:04.372Z,996.5
2023-01-19T03:07:04.398Z,996.5
2023-01-19T03:08:04.395Z,996.5
2023-01-19T03:09:04.404Z,996.5
2023-01-19T03:10:04.395Z,996.5
2023-01-19T03:11:04.424Z,996.5
2023-01-19T03:12:04.359Z,996.5
2023-01-19T03:13:04.397Z,996.5
2023-01-19T03:14:04.376Z,996.6
2023-01-19T03:15:04.417Z,996.6
2023-01-19T03:16:04.376Z,996.6
2023-01-19T03:17:04.422Z,996.6
2023-01-19T03:18:04.363Z,996.7
2023-01-19T03:19:04.400Z,996.7
2023-01-19T03:20:04.369Z,996.7
2023-01-19T03:21:04.406Z,996.6
2023-01-19T03:22:04.380Z,996.7
2023-01-19T03:23:04.574Z,996.7
2023-01-19T03:24:04.405Z,996.7
2023-01-19T03:25:04.391Z,996.7
2023-01-19T03:26:04.373Z,996.7
2023-01-19T03:27:04.407Z,996.7
2023-01-19T03:28:04.501Z,996.7
2023-01-19T03:29:04.546Z,996.6
2023-01-19T03:30:04.374Z,996.6
2023-01-19T03:31:04.417Z,996.6
2023-01-19T03:32:04.357Z,996.6
2023-01-19T03:33:04.407Z,996.6
2023-01-19T03:34:04.375Z,996.7
2023-01-19T03:35:04.425Z,996.7
2023-01-19T03:36:04.372Z,996.7
2023-01-19T03:37:04.407Z,996.7
2023-01-19T03:38:04.399Z,996.7
2023-01-19T03:39:04.405Z,996.7
2023-01-19T03:40:04.380Z,996.7
2023-01-19T03:41:04.439Z,996.7
2023-01-19T03:42:04.370Z,996.7
2023-01-19T03:43:04.409Z,996.7
2023-01-19T03:44:04.375Z,996.7
2023-01-19T03:45:04.411Z,996.7
2023-01-19T03:46:04.413Z,996.7
2023-01-19T03:47:04.444Z,996.7
2023-01-19T03:48:04.381Z,996.7
2023-01-19T03:49:04.397Z,996.6
2023-01-19T03:50:04.379Z,996.7
2023-01-19T03:51:04.397Z,996.7
2023-01-19T03:52:04.380Z,996.6
2023-01-19T03:53:04.433Z,996.6
2023-01-19T03:54:04.387Z,996.6
2023-01-19T03:55:04.407Z,996.6
2023-01-19T03:56:04.379Z,996.6
2023-01-19T03:57:04.421Z,996.6
2023-01-19T03:58:04.396Z,996.6
2023-01-19T03:59:04.437Z,996.6
2023-01-19T04:00:04.379Z,996.7
2023-01-19T04:01:04.455Z,996.7
2023-01-19T04:02:04.482Z,996.7
2023-01-19T04:03:11.178Z,996.8
2023-01-19T04:04:03.856Z,996.8
2023-01-19T04:05:03.858Z,996.7
2023-01-19T04:06:03.867Z,996.7
2023-01-19T04:07:03.814Z,996.7
2023-01-19T04:08:03.859Z,996.7
2023-01-19T04:09:03.834Z,996.7
2023-01-19T04:10:03.856Z,996.7
2023-01-19T04:11:03.865Z,996.7
2023-01-19T04:12:03.859Z,996.8
2023-01-19T04:13:04.154Z,996.8
2023-01-19T04:14:03.842Z,996.8
2023-01-19T04:15:03.855Z,996.8
2023-01-19T04:16:03.911Z,996.7
2023-01-19T04:17:03.893Z,996.7
2023-01-19T04:18:03.831Z,996.7
2023-01-19T04:19:03.848Z,996.7
2023-01-19T04:20:03.825Z,996.7
2023-01-19T04:21:03.861Z,996.7
2023-01-19T04:22:03.845Z,996.7
2023-01-19T04:23:04.198Z,996.7
2023-01-19T04:24:03.823Z,996.7
2023-01-19T04:25:03.848Z,996.7
2023-01-19T04:26:03.840Z,996.7
2023-01-19T04:27:03.943Z,996.7
2023-01-19T04:28:03.849Z,996.7
2023-01-19T04:29:03.925Z,996.7
2023-01-19T04:30:03.823Z,996.7
2023-01-19T04:31:03.938Z,996.7
2023-01-19T04:32:03.843Z,996.7
2023-01-19T04:33:04.281Z,996.7
2023-01-19T04:34:03.835Z,996.7
2023-01-19T04:35:03.900Z,996.7
2023-01-19T04:36:03.835Z,996.7
2023-01-19T04:37:03.864Z,996.7
2023-01-19T04:38:03.870Z,996.7
2023-01-19T04:39:03.881Z,996.7
2023-01-19T04:40:03.837Z,996.8
2023-01-19T04:41:03.913Z,996.7
2023-01-19T04:42:03.844Z,996.7
2023-01-19T04:43:04.030Z,996.7
2023-01-19T04:44:03.851Z,996.7
2023-01-19T04:45:03.879Z,996.7
2023-01-19T04:46:03.963Z,996.7
2023-01-19T04:47:03.912Z,996.8
2023-01-19T04:48:03.834Z,996.7
2023-01-19T04:49:03.855Z,996.7
2023-01-19T04:50:03.837Z,996.8
2023-01-19T04:51:03.854Z,996.8
2023-01-19T04:52:03.877Z,996.7
2023-01-19T04:53:03.902Z,996.8
2023-01-19T04:54:03.889Z,996.7
2023-01-19T04:55:03.890Z,996.7
2023-01-19T04:56:03.850Z,996.8
2023-01-19T04:57:03.871Z,996.8
2023-01-19T04:58:03.843Z,996.8
2023-01-19T04:59:03.910Z,996.8
2023-01-19T05:00:03.860Z,996.8
2023-01-19T05:01:03.868Z,996.8
2023-01-19T05:02:03.905Z,996.8
2023-01-19T05:03:04.385Z,996.8
2023-01-19T05:04:03.848Z,996.7
2023-01-19T05:05:03.904Z,996.7
2023-01-19T05:06:03.848Z,996.7
2023-01-19T05:07:03.897Z,996.7
2023-01-19T05:08:03.848Z,996.7
2023-01-19T05:09:03.868Z,996.7
2023-01-19T05:10:03.866Z,996.7
2023-01-19T05:11:03.895Z,996.8
2023-01-19T05:12:03.852Z,996.7
2023-01-19T05:13:03.991Z,996.7
2023-01-19T05:14:03.847Z,996.7
2023-01-19T05:16:37.908Z,996.7
2023-01-19T05:17:04.479Z,996.7
2023-01-19T05:18:04.447Z,996.8
2023-01-19T05:19:05.111Z,996.8
2023-01-19T05:20:04.441Z,996.8
2023-01-19T05:21:04.471Z,996.8
2023-01-19T05:22:04.492Z,996.8
2023-01-19T05:23:04.489Z,996.8
2023-01-19T05:24:04.437Z,996.8
2023-01-19T05:25:04.463Z,996.8
2023-01-19T05:26:04.444Z,996.8
2023-01-19T05:27:04.459Z,996.8
2023-01-19T05:28:04.473Z,996.9
2023-01-19T05:29:04.478Z,996.8
2023-01-19T05:30:04.439Z,996.8
2023-01-19T05:31:04.561Z,996.9
2023-01-19T05:32:04.546Z,996.8
2023-01-19T05:33:04.474Z,996.8
2023-01-19T05:34:04.477Z,996.8
2023-01-19T05:35:04.506Z,996.8
2023-01-19T05:36:04.464Z,996.9
2023-01-19T05:37:04.476Z,996.9
2023-01-19T05:38:04.461Z,996.9
2023-01-19T05:39:04.484Z,996.9
2023-01-19T05:40:04.470Z,996.9
2023-01-19T05:41:04.501Z,996.9
2023-01-19T05:42:04.470Z,996.9
2023-01-19T05:43:04.911Z,996.9
2023-01-19T05:44:04.471Z,996.9
2023-01-19T05:45:04.468Z,997.0
2023-01-19T05:46:04.489Z,996.9
2023-01-19T05:47:04.500Z,996.9
2023-01-19T05:48:04.443Z,996.9
2023-01-19T05:49:04.481Z,996.9
2023-01-19T05:50:04.580Z,996.9
2023-01-19T05:51:04.619Z,996.9
2023-01-19T05:52:04.614Z,996.9
2023-01-19T05:53:04.549Z,996.9
2023-01-19T05:54:04.612Z,997.0
2023-01-19T05:55:04.641Z,996.9
2023-01-19T05:56:04.599Z,996.9
2023-01-19T05:57:04.583Z,997.0
2023-01-19T05:58:04.632Z,997.0
2023-01-19T05:59:04.660Z,997.1
2023-01-19T06:00:04.612Z,997.1
2023-01-19T06:01:06.124Z,997.1
2023-01-19T06:02:04.883Z,997.1
2023-01-19T06:03:05.018Z,997.1
2023-01-19T06:04:04.879Z,997.1
2023-01-19T06:05:04.877Z,997.1
2023-01-19T06:06:04.767Z,997.1
2023-01-19T06:07:04.672Z,997.1
2023-01-19T06:08:04.629Z,997.1
2023-01-19T06:09:04.660Z,997.1
2023-01-19T06:10:04.652Z,997.2
2023-01-19T06:12:41.596Z,997.2
2023-01-19T06:12:45.759Z,997.2
2023-01-19T06:13:04.618Z,997.2
2023-01-19T06:14:04.590Z,997.2
2023-01-19T06:15:04.626Z,997.2
2023-01-19T06:16:04.706Z,997.2
2023-01-19T06:17:13.939Z,997.2
2023-01-19T06:18:04.125Z,997.3
2023-01-19T06:19:04.405Z,997.3
2023-01-19T06:20:04.344Z,997.3
2023-01-19T06:21:05.805Z,997.3
2023-01-19T06:22:04.527Z,997.3
2023-01-19T06:23:04.282Z,997.3
2023-01-19T06:24:04.859Z,997.3
2023-01-19T06:25:04.148Z,997.3
2023-01-19T06:26:04.100Z,997.3
2023-01-19T06:27:04.908Z,997.3
2023-01-19T06:28:04.416Z,997.3
2023-01-19T06:29:04.114Z,997.3
2023-01-19T06:30:04.116Z,997.3
2023-01-19T06:31:04.140Z,997.3
2023-01-19T06:32:04.184Z,997.3
2023-01-19T06:33:04.246Z,997.4
2023-01-19T06:34:04.192Z,997.3
2023-01-19T06:35:04.152Z,997.3
2023-01-19T06:36:04.128Z,997.4
2023-01-19T06:37:04.162Z,997.4
2023-01-19T06:38:04.077Z,997.3
2023-01-19T06:39:04.128Z,997.4
2023-01-19T06:40:04.152Z,997.4
2023-01-19T06:41:04.296Z,997.4
2023-01-19T06:42:04.135Z,997.4
2023-01-19T06:43:04.258Z,997.4
2023-01-19T06:44:04.281Z,997.3
2023-01-19T06:45:04.144Z,997.4
2023-01-19T06:46:04.597Z,997.4
2023-01-19T06:47:15.580Z,997.3
2023-01-19T06:48:04.401Z,997.4
2023-01-19T06:49:04.138Z,997.3
2023-01-19T06:50:04.103Z,997.4
2023-01-19T06:51:04.250Z,997.3
2023-01-19T06:52:04.105Z,997.4
2023-01-19T06:53:04.085Z,997.4
2023-01-19T06:54:04.062Z,997.4
2023-01-19T06:55:04.133Z,997.4
2023-01-19T06:56:04.809Z,997.5
2023-01-19T06:57:04.443Z,997.5
2023-01-19T06:58:04.147Z,997.4
2023-01-19T06:59:04.119Z,997.4
2023-01-19T07:00:04.125Z,997.4
2023-01-19T07:01:04.262Z,997.4
2023-01-19T07:02:26.586Z,997.4
2023-01-19T07:03:04.667Z,997.5
2023-01-19T07:04:04.105Z,997.4
2023-01-19T07:05:05.089Z,997.5
2023-01-19T07:06:04.149Z,997.5
2023-01-19T07:07:04.154Z,997.5
2023-01-19T07:08:04.342Z,997.5
2023-01-19T07:09:04.129Z,997.5
2023-01-19T07:11:54.976Z,997.6
2023-01-19T07:12:04.524Z,997.6
2023-01-19T07:13:04.737Z,997.6
2023-01-19T07:14:04.506Z,997.7
2023-01-19T07:15:04.542Z,997.7
2023-01-19T07:16:04.717Z,997.7
2023-01-19T07:17:04.546Z,997.8
2023-01-19T07:18:04.502Z,997.8
2023-01-19T07:19:04.496Z,997.8
2023-01-19T07:20:04.570Z,997.8
2023-01-19T07:21:04.526Z,997.9
2023-01-19T07:22:04.638Z,997.9
2023-01-19T07:23:04.488Z,997.9
2023-01-19T07:24:04.501Z,998.0
2023-01-19T07:25:04.533Z,998.0
2023-01-19T07:26:04.558Z,998.0
2023-01-19T07:27:04.548Z,998.0
2023-01-19T07:28:04.580Z,998.0
2023-01-19T07:29:04.502Z,998.0
2023-01-19T07:30:04.549Z,998.0
2023-01-19T07:31:04.588Z,998.0
2023-01-19T07:32:04.554Z,998.0
2023-01-19T07:33:04.525Z,998.0
2023-01-19T07:34:04.609Z,998.0
2023-01-19T07:35:04.602Z,998.1
2023-01-19T07:36:05.637Z,998.1
2023-01-19T07:37:04.478Z,998.1
2023-01-19T07:38:04.578Z,998.1
2023-01-19T07:39:04.576Z,998.0
2023-01-19T07:40:04.477Z,998.1
2023-01-19T07:41:04.416Z,998.1
2023-01-19T07:42:04.451Z,998.1
2023-01-19T07:43:04.489Z,998.1
2023-01-19T07:44:04.487Z,998.1
2023-01-19T07:45:04.512Z,998.1
2023-01-19T07:46:04.531Z,998.0
2023-01-19T07:47:04.420Z,998.1
2023-01-19T07:48:06.025Z,998.1
2023-01-19T07:49:04.423Z,998.1
2023-01-19T07:50:04.487Z,998.1
2023-01-19T07:51:04.418Z,998.1
2023-01-19T07:52:04.454Z,998.1
2023-01-19T07:53:04.413Z,998.1
2023-01-19T07:54:04.732Z,998.1
2023-01-19T07:55:04.428Z,998.2
2023-01-19T07:56:04.483Z,998.2
2023-01-19T07:57:04.431Z,998.1
2023-01-19T07:58:04.451Z,998.1
2023-01-19T07:59:04.454Z,998.1
2023-01-19T08:00:04.490Z,998.1
2023-01-19T08:01:04.555Z,998.1
2023-01-19T08:02:04.594Z,998.1
2023-01-19T08:03:04.892Z,998.1
2023-01-19T08:04:04.449Z,998.1
2023-01-19T08:05:04.460Z,998.1
2023-01-19T08:06:04.447Z,998.0
2023-01-19T08:07:04.422Z,998.1
2023-01-19T08:08:04.449Z,998.0
2023-01-19T08:09:04.601Z,998.1
2023-01-19T08:10:04.470Z,998.1
2023-01-19T08:11:04.477Z,998.1
2023-01-19T08:12:04.451Z,998.1
2023-01-19T08:13:04.446Z,998.1
2023-01-19T08:14:06.888Z,998.1
2023-01-19T08:15:04.429Z,998.1
2023-01-19T08:16:04.516Z,998.1
2023-01-19T08:17:04.472Z,998.1
2023-01-19T08:18:04.461Z,998.1
2023-01-19T08:20:09.097Z,998.1
2023-01-19T08:20:13.084Z,998.1
2023-01-19T08:21:04.467Z,998.1
2023-01-19T08:22:04.476Z,998.1
2023-01-19T08:23:04.847Z,998.1
2023-01-19T08:24:04.483Z,998.1
2023-01-19T08:25:04.425Z,998.1
2023-01-19T08:26:04.449Z,998.1
2023-01-19T08:27:04.430Z,998.1
2023-01-19T08:28:04.451Z,998.1
2023-01-19T08:29:04.452Z,998.1
2023-01-19T08:30:04.461Z,998.1
2023-01-19T08:31:18.723Z,998.1
2023-01-19T08:32:04.565Z,998.1
2023-01-19T08:33:04.668Z,998.1
2023-01-19T08:34:04.496Z,998.1
2023-01-19T08:35:04.497Z,998.1
2023-01-19T08:36:04.474Z,998.1
2023-01-19T08:37:04.434Z,998.1
2023-01-19T08:38:04.482Z,998.1
2023-01-19T08:39:04.429Z,998.1
2023-01-19T08:40:04.457Z,998.1
2023-01-19T08:41:04.476Z,998.1
2023-01-19T08:42:04.471Z,998.1
2023-01-19T08:43:04.461Z,998.1
2023-01-19T08:44:04.464Z,998.1
2023-01-19T08:45:04.440Z,998.1
2023-01-19T08:46:04.481Z,998.1
2023-01-19T08:47:04.485Z,998.1
2023-01-19T08:48:04.467Z,998.1
2023-01-19T08:49:04.447Z,998.1
2023-01-19T08:50:04.483Z,998.1
2023-01-19T08:51:04.476Z,998.1
2023-01-19T08:52:04.475Z,998.1
2023-01-19T08:53:04.467Z,998.2
2023-01-19T08:54:04.471Z,998.1
2023-01-19T08:55:04.468Z,998.2
2023-01-19T08:56:04.472Z,998.1
2023-01-19T08:57:04.450Z,998.1
2023-01-19T08:58:04.674Z,998.1
2023-01-19T08:59:09.921Z,998.1
2023-01-19T09:00:04.483Z,998.1
2023-01-19T09:01:04.467Z,998.2
2023-01-19T09:02:04.528Z,998.1
2023-01-19T09:03:04.982Z,998.1
2023-01-19T09:04:04.466Z,998.1
2023-01-19T09:05:04.474Z,998.1
2023-01-19T09:06:04.483Z,998.1
2023-01-19T09:08:04.536Z,998.1
2023-01-19T09:09:04.452Z,998.1
2023-01-19T09:10:04.475Z,998.1
2023-01-19T09:11:04.475Z,998.1
2023-01-19T09:12:04.496Z,998.2
2023-01-19T09:13:04.449Z,998.2
2023-01-19T09:14:04.475Z,998.2
2023-01-19T09:15:04.465Z,998.1
2023-01-19T09:16:04.530Z,998.1
2023-01-19T09:17:04.457Z,998.1
2023-01-19T09:18:04.497Z,998.1
2023-01-19T09:19:04.447Z,998.1
2023-01-19T09:20:04.475Z,998.1
2023-01-19T09:21:04.485Z,998.1
2023-01-19T09:22:04.468Z,998.1
2023-01-19T09:23:04.472Z,998.1
2023-01-19T09:24:04.478Z,998.2
2023-01-19T09:25:04.454Z,998.1
2023-01-19T09:26:04.500Z,998.1
2023-01-19T09:27:04.488Z,998.1
2023-01-19T09:28:04.517Z,998.1
2023-01-19T09:29:04.446Z,998.1
2023-01-19T09:30:04.491Z,998.1
2023-01-19T09:31:04.591Z,998.1
2023-01-19T09:32:04.472Z,998.1
2023-01-19T09:33:04.491Z,998.1
2023-01-19T09:34:04.511Z,998.1
2023-01-19T09:35:04.453Z,998.1
2023-01-19T09:36:04.483Z,998.1
2023-01-19T09:37:04.470Z,998.1
2023-01-19T09:38:04.466Z,998.1
2023-01-19T09:39:04.498Z,998.1
2023-01-19T09:40:04.518Z,998.1
2023-01-19T09:41:04.522Z,998.1
2023-01-19T09:42:04.486Z,998.1
2023-01-19T09:43:04.458Z,998.1
2023-01-19T09:44:04.497Z,998.1
2023-01-19T09:45:04.522Z,998.1
2023-01-19T09:46:04.491Z,998.1
2023-01-19T09:47:04.461Z,998.1
2023-01-19T09:48:04.486Z,998.1
2023-01-19T09:49:04.474Z,998.1
2023-01-19T09:50:04.476Z,998.2
2023-01-19T09:51:04.510Z,998.2
2023-01-19T09:52:04.516Z,998.2
2023-01-19T09:53:04.469Z,998.2
2023-01-19T09:54:04.502Z,998.2
2023-01-19T09:55:04.458Z,998.2
2023-01-19T09:56:04.504Z,998.2
2023-01-19T09:57:04.503Z,998.2
2023-01-19T09:58:04.507Z,998.2
2023-01-19T09:59:04.459Z,998.2
2023-01-19T10:00:04.479Z,998.2
2023-01-19T10:01:04.536Z,998.2
2023-01-19T10:02:04.496Z,998.2
2023-01-19T10:03:04.619Z,998.2
2023-01-19T10:04:04.509Z,998.3
2023-01-19T10:05:04.463Z,998.3
2023-01-19T10:06:04.500Z,998.3
2023-01-19T10:07:04.467Z,998.3
2023-01-19T10:08:04.510Z,998.3
2023-01-19T10:09:04.494Z,998.3
2023-01-19T10:10:04.512Z,998.3
2023-01-19T10:11:04.472Z,998.3
2023-01-19T10:12:04.599Z,998.4
2023-01-19T10:13:04.470Z,998.4
2023-01-19T10:14:04.501Z,998.4
2023-01-19T10:15:04.517Z,998.3
2023-01-19T10:16:04.536Z,998.4
2023-01-19T10:17:04.472Z,998.4
2023-01-19T10:18:04.495Z,998.4
2023-01-19T10:19:04.477Z,998.4
2023-01-19T10:20:04.488Z,998.4
2023-01-19T10:21:05.552Z,998.3
2023-01-19T10:22:04.487Z,998.4
2023-01-19T10:23:04.789Z,998.4
2023-01-19T10:24:05.891Z,998.4
2023-01-19T10:25:04.480Z,998.4
2023-01-19T10:26:04.503Z,998.4
2023-01-19T10:27:04.540Z,998.4
2023-01-19T10:28:04.542Z,998.4
2023-01-19T10:29:04.486Z,998.4
2023-01-19T10:30:04.507Z,998.4
2023-01-19T10:31:04.591Z,998.4
2023-01-19T10:32:04.569Z,998.4
2023-01-19T10:33:04.597Z,998.4
2023-01-19T10:34:04.489Z,998.5
2023-01-19T10:35:04.473Z,998.5
2023-01-19T10:36:04.505Z,998.4
2023-01-19T10:37:04.484Z,998.4
2023-01-19T10:38:04.536Z,998.4
2023-01-19T10:39:04.545Z,998.4
2023-01-19T10:40:04.518Z,998.4
2023-01-19T10:41:04.558Z,998.4
2023-01-19T10:42:04.515Z,998.4
2023-01-19T10:43:04.823Z,998.4
2023-01-19T10:44:04.507Z,998.4
2023-01-19T10:45:04.518Z,998.4
2023-01-19T10:46:04.569Z,998.4
2023-01-19T10:47:04.486Z,998.4
2023-01-19T10:48:04.503Z,998.4
2023-01-19T10:49:04.493Z,998.3
2023-01-19T10:50:04.524Z,998.3
2023-01-19T10:51:04.533Z,998.3
2023-01-19T10:52:04.519Z,998.4
2023-01-19T10:53:04.858Z,998.4
2023-01-19T10:54:04.545Z,998.4
2023-01-19T10:55:04.557Z,998.4
2023-01-19T10:56:04.622Z,998.3
2023-01-19T10:57:04.560Z,998.3
2023-01-19T10:58:04.521Z,998.4
2023-01-19T10:59:04.492Z,998.4
2023-01-19T11:00:04.551Z,998.4
2023-01-19T11:01:04.778Z,998.4
2023-01-19T11:02:04.722Z,998.4
2023-01-19T11:03:04.998Z,998.4
2023-01-19T11:04:04.501Z,998.3
2023-01-19T11:05:04.510Z,998.4
2023-01-19T11:06:04.530Z,998.3
2023-01-19T11:07:04.484Z,998.3
2023-01-19T11:08:05.742Z,998.3
2023-01-19T11:09:30.974Z,998.4
2023-01-19T11:10:03.639Z,998.3
2023-01-19T11:11:04.377Z,998.3
2023-01-19T11:12:03.740Z,998.4
2023-01-19T11:13:04.257Z,998.3
2023-01-19T11:14:04.644Z,998.3
2023-01-19T11:15:03.715Z,998.3
2023-01-19T11:16:03.755Z,998.3
2023-01-19T11:17:03.727Z,998.3
2023-01-19T11:18:03.647Z,998.3
2023-01-19T11:19:03.699Z,998.3
2023-01-19T11:20:03.661Z,998.3
2023-01-19T11:21:03.738Z,998.2
2023-01-19T11:22:03.653Z,998.2
2023-01-19T11:23:03.939Z,998.2
2023-01-19T11:24:03.646Z,998.2
2023-01-19T11:25:03.702Z,998.2
2023-01-19T11:26:03.682Z,998.2
2023-01-19T11:27:03.749Z,998.2
2023-01-19T11:28:03.652Z,998.2
2023-01-19T11:29:03.688Z,998.2
2023-01-19T11:30:03.678Z,998.2
2023-01-19T11:31:03.806Z,998.2
2023-01-19T11:32:03.685Z,998.2
2023-01-19T11:33:03.903Z,998.1
2023-01-19T11:34:03.648Z,998.2
2023-01-19T11:35:03.678Z,998.2
2023-01-19T11:36:03.726Z,998.2
2023-01-19T11:37:03.754Z,998.2
2023-01-19T11:38:03.652Z,998.2
2023-01-19T11:39:03.705Z,998.2
2023-01-19T11:40:03.671Z,998.2
2023-01-19T11:41:03.696Z,998.2
2023-01-19T11:42:03.664Z,998.2
2023-01-19T11:43:04.052Z,998.2
2023-01-19T11:44:03.683Z,998.2
2023-01-19T11:45:04.138Z,998.2
2023-01-19T11:46:03.769Z,998.2
2023-01-19T11:47:03.701Z,998.2
2023-01-19T11:48:04.159Z,998.2
2023-01-19T11:49:03.681Z,998.2
2023-01-19T11:50:03.654Z,998.2
2023-01-19T11:51:03.722Z,998.2
2023-01-19T11:52:03.666Z,998.2
2023-01-19T11:53:03.702Z,998.2
2023-01-19T11:54:03.656Z,998.2
2023-01-19T11:56:36.767Z,998.1
2023-01-19T11:57:03.811Z,998.1
2023-01-19T11:58:04.827Z,998.1
2023-01-19T11:59:03.807Z,998.1
2023-01-19T12:00:03.795Z,998.1
2023-01-19T12:01:03.845Z,998.2
2023-01-19T12:02:03.888Z,998.2
2023-01-19T12:03:04.751Z,998.2
2023-01-19T12:04:03.775Z,998.2
2023-01-19T12:05:03.807Z,998.2
2023-01-19T12:06:03.781Z,998.2
2023-01-19T12:07:03.816Z,998.2
2023-01-19T12:08:06.441Z,998.2
2023-01-19T12:09:04.282Z,998.2
2023-01-19T12:10:04.243Z,998.2
2023-01-19T12:11:03.800Z,998.2
2023-01-19T12:12:03.782Z,998.2
2023-01-19T12:13:03.805Z,998.2
2023-01-19T12:14:03.863Z,998.2
2023-01-19T12:15:03.785Z,998.2
2023-01-19T12:16:03.798Z,998.2
2023-01-19T12:17:03.796Z,998.2
2023-01-19T12:18:04.266Z,998.2
2023-01-19T12:19:04.027Z,998.2
2023-01-19T12:20:03.912Z,998.2
2023-01-19T12:21:04.202Z,998.2
2023-01-19T12:22:03.797Z,998.2
2023-01-19T12:23:03.783Z,998.2
2023-01-19T12:24:04.141Z,998.2
2023-01-19T12:25:03.795Z,998.2
2023-01-19T12:26:04.934Z,998.2
2023-01-19T12:27:03.791Z,998.2
2023-01-19T12:28:05.234Z,998.2
2023-01-19T12:29:03.798Z,998.2
2023-01-19T12:30:03.902Z,998.1
2023-01-19T12:31:03.889Z,998.1
2023-01-19T12:32:03.845Z,998.2
2023-01-19T12:33:03.814Z,998.1
2023-01-19T12:34:03.807Z,998.1
2023-01-19T12:35:03.790Z,998.1
2023-01-19T12:36:03.814Z,998.1
2023-01-19T12:37:03.814Z,998.1
2023-01-19T12:38:03.848Z,998.1
2023-01-19T12:39:03.789Z,998.1
2023-01-19T12:40:03.849Z,998.1
2023-01-19T12:41:03.783Z,998.0
2023-01-19T12:42:03.847Z,998.0
2023-01-19T12:43:03.797Z,998.0
2023-01-19T12:44:04.042Z,998.0
2023-01-19T12:45:03.784Z,998.1
2023-01-19T12:46:03.961Z,998.1
2023-01-19T12:47:03.798Z,998.0
2023-01-19T12:48:03.870Z,998.1
2023-01-19T12:49:03.778Z,998.1
2023-01-19T12:50:03.822Z,998.0
2023-01-19T12:51:03.792Z,998.0
2023-01-19T12:52:03.822Z,998.0
2023-01-19T12:53:03.809Z,998.0
2023-01-19T12:54:04.081Z,998.0
2023-01-19T12:55:03.821Z,998.0
2023-01-19T12:56:03.848Z,998.0